KFAM/FAM METAR and TAF weather

Enter ICAO airport designator
Station Type Date Time Source
KFAM METAR 2020/01/23 05:56 UTC NOAA

KFAM 230556Z AUTO 17008KT 10SM UP OVC010 M01/M02 A3009 RMK AO2 SLP212 P0001 60006 T10061017 10000 21011 400111056 58012 FZRANO


Station Type Date Time Source
KFAM Decoded METAR 2020/01/23 05:56 UTC NOAA

Farmington Airport, MO, United States (KFAM) 37-46N 090-26W
Jan 23, 2020 - 12:56 AM EST / 2020.01.23 0556 UTC
Wind: from the S (170 degrees) at 9 MPH (8 KT):0
Visibility: 10 mile(s):0
Sky conditions: overcast
Weather: precipitation
Precipitation last hour: 0.01 inches
Temperature: 30.9 F (-0.6 C)
Windchill: 23 F (-5 C):1
Dew Point: 28.9 F (-1.7 C)
Relative Humidity: 92%
Pressure (altimeter): 30.09 in. Hg (1018 hPa)
Pressure tendency: 0.04 inches (1.2 hPa) lower than three hours ago
ob: KFAM 230556Z AUTO 17008KT 10SM UP OVC010 M01/M02 A3009 RMK AO2 SLP212 P0001 60006 T10061017 10000 21011 400111056 58012 FZRANO
cycle: 6

Station Type Date Time Source
KFAM TAF UTC NOAA

Error!

Example: see airport list